createdAt,value
2022-12-26T00:02:24.183Z,100380.81
2022-12-26T00:04:53.551Z,100386.44
2022-12-26T00:07:20.429Z,100384.75
2022-12-26T00:09:46.826Z,100375.69
2022-12-26T00:12:13.300Z,100380.09
2022-12-26T00:14:40.176Z,100385.34
2022-12-26T00:17:07.269Z,100383.63
2022-12-26T00:19:33.616Z,100384.91
2022-12-26T00:21:59.932Z,100392.53
2022-12-26T00:24:26.361Z,100388.16
2022-12-26T00:26:52.667Z,100379.81
2022-12-26T00:29:19.052Z,100375.56
2022-12-26T00:31:46.666Z,100377.66
2022-12-26T00:34:13.185Z,100374.28
2022-12-26T00:36:39.501Z,100368.06
2022-12-26T00:39:05.860Z,100369.22
2022-12-26T00:41:32.781Z,100371.16
2022-12-26T00:43:59.647Z,100379.63
2022-12-26T00:46:27.517Z,100373.56
2022-12-26T00:48:53.963Z,100377.38
2022-12-26T00:51:20.661Z,100375.97
2022-12-26T00:53:47.181Z,100366.53
2022-12-26T00:56:13.751Z,100379.09
2022-12-26T00:58:41.903Z,100380.09
2022-12-26T01:01:20.779Z,100375.59
2022-12-26T01:03:48.719Z,100383.94
2022-12-26T01:06:55.656Z,100379.84
2022-12-26T01:09:21.971Z,100381.97
2022-12-26T01:11:48.273Z,100383.28
2022-12-26T01:14:17.290Z,100386.78
2022-12-26T01:16:45.856Z,100397.81
2022-12-26T01:19:13.160Z,100394.41
2022-12-26T01:21:39.696Z,100393.31
2022-12-26T01:24:07.223Z,100402.75
2022-12-26T01:26:33.530Z,100398.38
2022-12-26T01:28:59.812Z,100405.41
2022-12-26T01:31:26.178Z,100398.09
2022-12-26T01:33:52.569Z,100391.72
2022-12-26T01:36:19.118Z,100388.66
2022-12-26T01:38:46.138Z,100399.25
2022-12-26T01:41:22.102Z,100412.81
2022-12-26T01:43:48.459Z,100423.81
2022-12-26T01:46:17.131Z,100415.34
2022-12-26T01:48:43.922Z,100437.09
2022-12-26T01:51:12.768Z,100437.38
2022-12-26T01:53:53.528Z,100433.16
2022-12-26T01:56:26.532Z,100434.41
2022-12-26T01:59:00.036Z,100428.47
2022-12-26T02:01:30.993Z,100433.84
2022-12-26T02:04:16.529Z,100427.50
2022-12-26T02:06:43.397Z,100426.63
2022-12-26T02:09:09.965Z,100423.53
2022-12-26T02:11:40.848Z,100436.81
2022-12-26T02:14:08.578Z,100446.44
2022-12-26T02:16:37.601Z,100456.03
2022-12-26T02:19:11.333Z,100462.38
2022-12-26T02:22:01.480Z,100444.31
2022-12-26T02:24:30.819Z,100451.22
2022-12-26T02:27:15.852Z,100446.44
2022-12-26T02:30:10.471Z,100433.59
2022-12-26T02:32:39.799Z,100442.03
2022-12-26T02:35:38.104Z,100443.19
2022-12-26T02:38:21.172Z,100452.94
2022-12-26T02:41:01.360Z,100458.59
2022-12-26T02:43:47.201Z,100457.59
2022-12-26T02:46:51.148Z,100451.53
2022-12-26T02:49:27.195Z,100454.06
2022-12-26T02:52:21.703Z,100442.47
2022-12-26T02:55:15.644Z,100439.91
2022-12-26T02:58:09.519Z,100445.88
2022-12-26T03:00:59.450Z,100426.94
2022-12-26T03:03:51.298Z,100436.53
2022-12-26T03:06:40.752Z,100427.91
2022-12-26T03:09:35.101Z,100440.63
2022-12-26T03:12:26.689Z,100443.19
2022-12-26T03:15:00.855Z,100429.47
2022-12-26T03:17:46.696Z,100415.63
2022-12-26T03:20:24.548Z,100423.25
2022-12-26T03:22:55.676Z,100431.28
2022-12-26T03:26:05.152Z,100414.78
2022-12-26T03:28:31.651Z,100436.13
2022-12-26T03:31:01.820Z,100437.25
2022-12-26T03:33:51.027Z,100442.19
2022-12-26T03:36:36.076Z,100428.22
2022-12-26T03:39:19.826Z,100451.09
2022-12-26T03:42:22.141Z,100426.63
2022-12-26T03:45:16.077Z,100442.47
2022-12-26T03:48:13.941Z,100427.91
2022-12-26T03:51:05.718Z,100408.28
2022-12-26T03:53:55.908Z,100419.16
2022-12-26T03:56:57.744Z,100421.13
2022-12-26T03:59:52.636Z,100407.56
2022-12-26T04:02:39.898Z,100417.31
2022-12-26T04:05:32.183Z,100414.19
2022-12-26T04:08:21.201Z,100422.69
2022-12-26T04:11:10.542Z,100418.84
2022-12-26T04:14:06.453Z,100421.56
2022-12-26T04:17:02.940Z,100425.22
2022-12-26T04:19:58.168Z,100422.97
2022-12-26T04:23:10.273Z,100433.56
2022-12-26T04:26:05.164Z,100432.00
2022-12-26T04:28:50.568Z,100446.69
2022-12-26T04:31:50.933Z,100451.38
2022-12-26T04:35:09.765Z,100434.41
2022-12-26T04:38:01.629Z,100454.31
2022-12-26T04:40:52.925Z,100453.19
2022-12-26T04:43:49.014Z,100441.03
2022-12-26T04:46:20.428Z,100441.88
2022-12-26T04:49:27.086Z,100449.22
2022-12-26T04:51:55.862Z,100446.97
2022-12-26T04:54:22.229Z,100438.09
2022-12-26T04:56:48.618Z,100433.97
2022-12-26T04:59:15.946Z,100434.91
2022-12-26T05:02:01.696Z,100432.97
2022-12-26T05:04:47.191Z,100419.53
2022-12-26T05:07:44.373Z,100430.66
2022-12-26T05:10:17.847Z,100428.81
2022-12-26T05:12:44.317Z,100434.03
2022-12-26T05:15:11.170Z,100430.53
2022-12-26T05:17:56.170Z,100437.81
2022-12-26T05:20:41.213Z,100444.94
2022-12-26T05:23:35.240Z,100441.38
2022-12-26T05:26:20.651Z,100447.88
2022-12-26T05:28:53.717Z,100448.56
2022-12-26T05:31:20.043Z,100437.94
2022-12-26T05:34:05.195Z,100434.84
2022-12-26T05:36:40.782Z,100447.28
2022-12-26T05:39:08.599Z,100443.19
2022-12-26T05:41:36.356Z,100442.63
2022-12-26T05:44:02.995Z,100438.41
2022-12-26T05:46:29.413Z,100426.81
2022-12-26T05:48:55.828Z,100428.53
2022-12-26T05:51:22.474Z,100441.00
2022-12-26T05:53:48.988Z,100438.84
2022-12-26T05:56:17.430Z,100455.44
2022-12-26T05:58:44.589Z,100452.59
2022-12-26T06:01:17.714Z,100445.22
2022-12-26T06:03:47.923Z,100447.75
2022-12-26T06:06:14.991Z,100447.22
2022-12-26T06:08:41.399Z,100461.34
2022-12-26T06:11:10.590Z,100477.75
2022-12-26T06:13:37.952Z,100466.44
2022-12-26T06:16:09.440Z,100457.09
2022-12-26T06:18:36.393Z,100467.41
2022-12-26T06:21:08.100Z,100471.81
2022-12-26T06:23:35.431Z,100469.53
2022-12-26T06:26:02.665Z,100464.63
2022-12-26T06:28:29.605Z,100468.00
2022-12-26T06:31:02.447Z,100469.41
2022-12-26T06:33:28.801Z,100474.47
2022-12-26T06:35:55.133Z,100478.91
2022-12-26T06:38:21.463Z,100460.78
2022-12-26T06:40:47.789Z,100455.66
2022-12-26T06:43:14.136Z,100453.00
2022-12-26T06:45:40.516Z,100449.31
2022-12-26T06:48:06.861Z,100456.28
2022-12-26T06:50:36.236Z,100460.81
2022-12-26T06:53:02.612Z,100467.59
2022-12-26T06:55:29.007Z,100462.22
2022-12-26T06:57:55.334Z,100458.69
2022-12-26T07:00:22.281Z,100463.03
2022-12-26T07:02:50.176Z,100462.91
2022-12-26T07:05:16.700Z,100462.22
2022-12-26T07:07:43.217Z,100447.50
2022-12-26T07:10:09.896Z,100466.47
2022-12-26T07:12:36.301Z,100464.22
2022-12-26T07:15:02.805Z,100463.09
2022-12-26T07:17:29.147Z,100472.56
2022-12-26T07:19:55.558Z,100470.00
2022-12-26T07:22:21.862Z,100487.13
2022-12-26T07:24:48.157Z,100498.16
2022-12-26T07:27:14.452Z,100498.28
2022-12-26T07:29:40.776Z,100493.34
2022-12-26T07:32:07.324Z,100501.84
2022-12-26T07:34:33.755Z,100514.84
2022-12-26T07:37:00.144Z,100517.66
2022-12-26T07:39:26.473Z,100517.09
2022-12-26T07:41:58.831Z,100528.41
2022-12-26T07:44:26.769Z,100532.34
2022-12-26T07:46:53.178Z,100531.09
2022-12-26T07:49:19.488Z,100531.94
2022-12-26T07:51:45.843Z,100532.63
2022-12-26T07:54:12.851Z,100523.72
2022-12-26T07:56:40.292Z,100533.72
2022-12-26T07:59:07.292Z,100535.00
2022-12-26T08:01:33.679Z,100529.34
2022-12-26T08:04:00.321Z,100514.78
2022-12-26T08:06:27.374Z,100510.41
2022-12-26T08:08:53.759Z,100506.63
2022-12-26T08:11:24.205Z,100486.66
2022-12-26T08:13:52.158Z,100484.97
2022-12-26T08:16:19.315Z,100504.47
2022-12-26T08:18:45.775Z,100525.94
2022-12-26T08:21:13.066Z,100535.50
2022-12-26T08:23:39.524Z,100524.94
2022-12-26T08:26:07.678Z,100497.41
2022-12-26T08:28:34.800Z,100496.81
2022-12-26T08:31:06.555Z,100505.56
2022-12-26T08:33:33.178Z,100528.91
2022-12-26T08:36:11.914Z,100533.53
2022-12-26T08:38:39.244Z,100541.34
2022-12-26T08:41:06.103Z,100550.94
2022-12-26T08:43:53.222Z,100543.28
2022-12-26T08:46:20.731Z,100542.75
2022-12-26T08:48:47.777Z,100543.28
2022-12-26T08:51:19.781Z,100540.28
2022-12-26T08:53:46.979Z,100552.59
2022-12-26T08:56:16.969Z,100560.66
2022-12-26T08:58:43.716Z,100568.25
2022-12-26T09:01:15.953Z,100576.75
2022-12-26T09:03:43.566Z,100596.94
2022-12-26T09:06:11.725Z,100597.75
2022-12-26T09:08:40.315Z,100606.41
2022-12-26T09:11:16.583Z,100604.84
2022-12-26T09:13:44.177Z,100605.44
2022-12-26T09:16:16.732Z,100599.91
2022-12-26T09:18:44.423Z,100604.56
2022-12-26T09:21:12.570Z,100616.72
2022-12-26T09:23:40.045Z,100618.69
2022-12-26T09:26:07.625Z,100635.13
2022-12-26T09:28:34.606Z,100631.84
2022-12-26T09:31:06.412Z,100628.06
2022-12-26T09:33:36.134Z,100625.75
2022-12-26T09:36:14.305Z,100628.56
2022-12-26T09:38:41.561Z,100619.53
2022-12-26T09:41:20.075Z,100624.53
2022-12-26T09:44:21.784Z,100620.84
2022-12-26T09:46:48.115Z,100606.84
2022-12-26T09:49:25.525Z,100620.56
2022-12-26T09:51:56.607Z,100626.47
2022-12-26T09:54:33.161Z,100647.13
2022-12-26T09:57:02.984Z,100658.28
2022-12-26T09:59:34.090Z,100649.25
2022-12-26T10:02:00.607Z,100649.94
2022-12-26T10:04:30.425Z,100653.47
2022-12-26T10:07:19.805Z,100637.13
2022-12-26T10:09:58.121Z,100624.59
2022-12-26T10:12:40.541Z,100621.19
2022-12-26T10:15:28.611Z,100607.19
2022-12-26T10:18:16.819Z,100625.84
2022-12-26T10:20:58.442Z,100611.34
2022-12-26T10:23:31.831Z,100611.88
2022-12-26T10:26:19.207Z,100647.38
2022-12-26T10:28:59.291Z,100657.22
2022-12-26T10:31:32.735Z,100642.56
2022-12-26T10:34:19.283Z,100646.75
2022-12-26T10:36:57.099Z,100639.69
2022-12-26T10:39:30.184Z,100640.56
2022-12-26T10:42:08.713Z,100647.06
2022-12-26T10:44:35.059Z,100651.31
2022-12-26T10:47:25.070Z,100651.31
2022-12-26T10:49:51.783Z,100648.50
2022-12-26T10:52:26.873Z,100654.19
2022-12-26T10:55:28.526Z,100657.03
2022-12-26T10:57:47.434Z,100648.66
2022-12-26T11:00:21.147Z,100653.44
2022-12-26T11:03:03.925Z,100658.47
2022-12-26T11:05:57.473Z,100667.50
2022-12-26T11:08:20.347Z,100658.28
2022-12-26T11:11:20.753Z,100652.91
2022-12-26T11:13:50.740Z,100654.56
2022-12-26T11:16:26.734Z,100674.28
2022-12-26T11:18:53.222Z,100673.53
2022-12-26T11:21:19.487Z,100664.81
2022-12-26T11:23:48.235Z,100677.44
2022-12-26T11:26:31.865Z,100680.00
2022-12-26T11:29:21.426Z,100665.47
2022-12-26T11:31:56.280Z,100665.66
2022-12-26T11:34:38.586Z,100664.81
2022-12-26T11:37:07.273Z,100662.25
2022-12-26T11:39:37.497Z,100658.13
2022-12-26T11:42:20.123Z,100663.38
2022-12-26T11:44:49.610Z,100657.28
2022-12-26T11:47:19.096Z,100650.63
2022-12-26T11:50:00.668Z,100658.84
2022-12-26T11:52:45.201Z,100661.66
2022-12-26T11:55:27.059Z,100653.47
2022-12-26T11:58:15.099Z,100657.75
2022-12-26T12:00:48.413Z,100654.91
2022-12-26T12:03:18.546Z,100651.50
2022-12-26T12:06:02.684Z,100654.50
2022-12-26T12:08:43.399Z,100645.06
2022-12-26T12:11:34.128Z,100636.59
2022-12-26T12:14:19.024Z,100633.78
2022-12-26T12:17:12.902Z,100625.63
2022-12-26T12:20:13.256Z,100630.44
2022-12-26T12:23:11.806Z,100627.63
2022-12-26T12:26:03.262Z,100618.59
2022-12-26T12:28:57.493Z,100613.78
2022-12-26T12:31:41.024Z,100618.88
2022-12-26T12:34:16.340Z,100621.41
2022-12-26T12:37:13.176Z,100623.13
2022-12-26T12:40:00.592Z,100623.94
2022-12-26T12:42:43.278Z,100629.34
2022-12-26T12:45:33.485Z,100618.16
2022-12-26T12:48:35.102Z,100626.94
2022-12-26T12:51:27.900Z,100623.66
2022-12-26T12:54:31.243Z,100624.81
2022-12-26T12:57:28.086Z,100624.66
2022-12-26T13:00:15.056Z,100625.94
2022-12-26T13:03:10.338Z,100623.13
2022-12-26T13:06:06.549Z,100619.16
2022-12-26T13:08:40.145Z,100617.34
2022-12-26T13:11:12.827Z,100621.00
2022-12-26T13:13:53.217Z,100610.53
2022-12-26T13:16:43.421Z,100612.38
2022-12-26T13:19:26.176Z,100617.34
2022-12-26T13:21:57.624Z,100612.69
2022-12-26T13:24:43.275Z,100613.69
2022-12-26T13:27:22.337Z,100619.06
2022-12-26T13:29:49.370Z,100618.06
2022-12-26T13:32:22.998Z,100607.59
2022-12-26T13:34:51.685Z,100611.13
2022-12-26T13:37:55.545Z,100619.34
2022-12-26T13:40:25.924Z,100612.00
2022-12-26T13:43:32.836Z,100600.09
2022-12-26T13:45:59.427Z,100603.38
2022-12-26T13:48:25.817Z,100603.63
2022-12-26T13:50:56.770Z,100596.00
2022-12-26T13:53:26.206Z,100601.09
2022-12-26T13:55:54.972Z,100591.47
2022-12-26T13:58:51.819Z,100596.84
2022-12-26T14:01:43.070Z,100595.31
2022-12-26T14:04:36.447Z,100592.88
2022-12-26T14:07:20.813Z,100594.16
2022-12-26T14:10:15.179Z,100597.69
2022-12-26T14:13:03.731Z,100591.63
2022-12-26T14:15:57.842Z,100599.53
2022-12-26T14:18:43.029Z,100598.56
2022-12-26T14:21:37.329Z,100596.97
2022-12-26T14:24:12.798Z,100597.13
2022-12-26T14:26:54.370Z,100601.94
2022-12-26T14:29:30.314Z,100611.69
2022-12-26T14:32:38.401Z,100605.03
2022-12-26T14:35:24.207Z,100611.09
2022-12-26T14:38:21.528Z,100611.97
2022-12-26T14:41:08.002Z,100616.47
2022-12-26T14:43:38.950Z,100615.75
2022-12-26T14:46:31.159Z,100611.09
2022-12-26T14:49:18.283Z,100613.66
2022-12-26T14:51:45.254Z,100609.13
2022-12-26T14:54:22.584Z,100610.66
2022-12-26T14:56:50.481Z,100617.59
2022-12-26T14:59:32.937Z,100619.97
2022-12-26T15:02:11.099Z,100623.66
2022-12-26T15:05:01.006Z,100604.16
2022-12-26T15:07:58.349Z,100610.13
2022-12-26T15:10:52.257Z,100610.97
2022-12-26T15:13:42.290Z,100605.16
2022-12-26T15:16:20.384Z,100606.44
2022-12-26T15:19:25.171Z,100613.75
2022-12-26T15:22:03.774Z,100618.88
2022-12-26T15:25:18.763Z,100665.06
2022-12-26T15:27:59.274Z,100685.75
2022-12-26T15:31:10.812Z,100694.16
2022-12-26T15:33:40.321Z,100686.47
2022-12-26T15:36:20.061Z,100683.88
2022-12-26T15:38:57.835Z,100675.47
2022-12-26T15:41:30.385Z,100664.00
2022-12-26T15:44:14.561Z,100646.78
2022-12-26T15:46:56.533Z,100651.69
2022-12-26T15:49:47.625Z,100661.94
2022-12-26T15:52:28.528Z,100659.16
2022-12-26T15:55:30.319Z,100652.63
2022-12-26T15:58:25.542Z,100646.78
2022-12-26T16:00:54.617Z,100651.16
2022-12-26T16:03:36.734Z,100649.84
2022-12-26T16:06:11.895Z,100652.50
2022-12-26T16:09:00.123Z,100657.50
2022-12-26T16:11:31.439Z,100656.75
2022-12-26T16:14:01.594Z,100666.06
2022-12-26T16:16:37.175Z,100658.88
2022-12-26T16:19:26.067Z,100662.75
2022-12-26T16:22:20.675Z,100685.50
2022-12-26T16:24:51.254Z,100690.72
2022-12-26T16:27:21.127Z,100705.22
2022-12-26T16:30:14.432Z,100731.41
2022-12-26T16:32:43.470Z,100737.84
2022-12-26T16:35:26.623Z,100736.50
2022-12-26T16:37:55.005Z,100737.09
2022-12-26T16:40:23.740Z,100744.75
2022-12-26T16:43:02.117Z,100750.44
2022-12-26T16:45:32.122Z,100748.38
2022-12-26T16:47:59.169Z,100742.72
2022-12-26T16:50:28.671Z,100746.72
2022-12-26T16:53:04.852Z,100765.03
2022-12-26T16:55:31.144Z,100767.72
2022-12-26T16:58:01.353Z,100770.50
2022-12-26T17:00:27.971Z,100778.13
2022-12-26T17:02:57.649Z,100786.16
2022-12-26T17:05:31.267Z,100794.00
2022-12-26T17:08:00.577Z,100799.88
2022-12-26T17:10:37.365Z,100799.47
2022-12-26T17:13:07.950Z,100788.53
2022-12-26T17:15:37.383Z,100743.53
2022-12-26T17:18:45.555Z,100756.28
2022-12-26T17:21:19.495Z,100740.25
2022-12-26T17:23:58.426Z,100729.50
2022-12-26T17:26:28.268Z,100737.25
2022-12-26T17:28:54.693Z,100712.34
2022-12-26T17:31:43.122Z,100701.75
2022-12-26T17:34:26.439Z,100711.88
2022-12-26T17:37:18.473Z,100730.38
2022-12-26T17:39:40.279Z,100746.59
2022-12-26T17:42:06.682Z,100756.50
2022-12-26T17:44:35.829Z,100742.13
2022-12-26T17:47:11.743Z,100753.75
2022-12-26T17:49:38.084Z,100776.06
2022-12-26T17:52:04.666Z,100777.91
2022-12-26T17:54:31.087Z,100774.38
2022-12-26T17:56:57.464Z,100783.78
2022-12-26T17:59:23.823Z,100793.50
2022-12-26T18:01:50.270Z,100803.13
2022-12-26T18:04:16.646Z,100806.53
2022-12-26T18:06:43.151Z,100822.56
2022-12-26T18:09:27.477Z,100822.28
2022-12-26T18:11:54.384Z,100831.03
2022-12-26T18:14:20.907Z,100835.72
2022-12-26T18:16:50.086Z,100831.38
2022-12-26T18:19:18.287Z,100841.81
2022-12-26T18:21:45.501Z,100852.81
2022-12-26T18:24:13.115Z,100849.31
2022-12-26T18:26:40.010Z,100862.66
2022-12-26T18:29:06.991Z,100869.47
2022-12-26T18:31:33.536Z,100867.31
2022-12-26T18:33:59.878Z,100860.91
2022-12-26T18:36:32.047Z,100867.09
2022-12-26T18:38:58.507Z,100876.00
2022-12-26T18:41:24.912Z,100867.03
2022-12-26T18:43:51.311Z,100869.56
2022-12-26T18:46:19.689Z,100872.44
2022-12-26T18:48:47.003Z,100877.16
2022-12-26T18:51:13.532Z,100886.00
2022-12-26T18:53:39.910Z,100886.22
2022-12-26T18:56:07.563Z,100886.88
2022-12-26T18:58:33.913Z,100891.56
2022-12-26T19:01:03.005Z,100889.41
2022-12-26T19:03:29.426Z,100892.19
2022-12-26T19:05:56.031Z,100910.34
2022-12-26T19:08:22.374Z,100911.63
2022-12-26T19:10:48.761Z,100918.44
2022-12-26T19:13:15.431Z,100922.28
2022-12-26T19:15:46.809Z,100920.69
2022-12-26T19:18:13.545Z,100924.53
2022-12-26T19:20:44.183Z,100928.59
2022-12-26T19:23:11.507Z,100944.78
2022-12-26T19:25:38.144Z,100956.00
2022-12-26T19:28:04.520Z,100956.84
2022-12-26T19:30:36.734Z,100963.78
2022-12-26T19:33:05.137Z,100970.06
2022-12-26T19:35:31.815Z,100988.13
2022-12-26T19:37:58.367Z,100988.66
2022-12-26T19:40:25.295Z,101003.19
2022-12-26T19:42:52.153Z,100999.94
2022-12-26T19:45:18.813Z,101009.34
2022-12-26T19:47:45.148Z,101020.94
2022-12-26T19:50:12.115Z,101028.00
2022-12-26T19:52:39.391Z,101038.59
2022-12-26T19:55:07.648Z,101047.44
2022-12-26T19:57:34.171Z,101051.81
2022-12-26T20:00:00.593Z,101064.31
2022-12-26T20:02:27.141Z,101060.16
2022-12-26T20:04:53.761Z,101070.38
2022-12-26T20:07:20.135Z,101075.94
2022-12-26T20:09:46.483Z,101081.44
2022-12-26T20:12:13.011Z,101081.75
2022-12-26T20:14:39.381Z,101094.25
2022-12-26T20:17:08.035Z,101091.31
2022-12-26T20:19:35.914Z,101105.66
2022-12-26T20:22:02.409Z,101101.19
2022-12-26T20:24:28.793Z,101112.31
2022-12-26T20:26:55.224Z,101121.28
2022-12-26T20:29:21.809Z,101124.91
2022-12-26T20:31:48.363Z,101128.94
2022-12-26T20:34:15.050Z,101141.63
2022-12-26T20:36:41.898Z,101151.97
2022-12-26T20:39:13.335Z,101161.78
2022-12-26T20:41:39.656Z,101164.53
2022-12-26T20:44:06.016Z,101181.69
2022-12-26T20:46:34.037Z,101190.19
2022-12-26T20:49:02.146Z,101194.16
2022-12-26T20:51:36.494Z,101193.41
2022-12-26T20:54:04.463Z,101196.63
2022-12-26T20:56:30.869Z,101198.25
2022-12-26T20:58:59.382Z,101204.72
2022-12-26T21:01:27.379Z,101217.47
2022-12-26T21:03:55.105Z,101212.88
2022-12-26T21:06:27.242Z,101226.22
2022-12-26T21:08:54.079Z,101231.59
2022-12-26T21:11:23.912Z,101242.81
2022-12-26T21:13:51.865Z,101256.84
2022-12-26T21:16:30.623Z,101256.06
2022-12-26T21:18:57.999Z,101259.25
2022-12-26T21:21:28.393Z,101252.75
2022-12-26T21:24:00.409Z,101263.72
2022-12-26T21:26:27.570Z,101272.16
2022-12-26T21:28:58.724Z,101276.56
2022-12-26T21:31:25.595Z,101283.69
2022-12-26T21:33:55.343Z,101279.28
2022-12-26T21:36:21.896Z,101292.34
2022-12-26T21:38:48.538Z,101301.00
2022-12-26T21:41:15.201Z,101292.09
2022-12-26T21:43:41.647Z,101305.94
2022-12-26T21:46:13.861Z,101324.88
2022-12-26T21:48:47.111Z,101335.25
2022-12-26T21:51:15.293Z,101330.22
2022-12-26T21:53:42.238Z,101340.50
2022-12-26T21:56:10.216Z,101348.81
2022-12-26T21:59:06.537Z,101349.69
2022-12-26T22:01:32.970Z,101363.41
2022-12-26T22:04:18.077Z,101368.25
2022-12-26T22:06:44.441Z,101384.50
2022-12-26T22:09:12.015Z,101388.13
2022-12-26T22:11:57.007Z,101386.88
2022-12-26T22:14:23.388Z,101399.88
2022-12-26T22:16:54.037Z,101408.88
2022-12-26T22:19:20.776Z,101412.53
2022-12-26T22:21:47.280Z,101417.53
2022-12-26T22:24:14.768Z,101421.44
2022-12-26T22:26:41.108Z,101429.34
2022-12-26T22:29:07.538Z,101439.56
2022-12-26T22:31:37.982Z,101445.91
2022-12-26T22:34:07.329Z,101449.81
2022-12-26T22:36:35.561Z,101454.44
2022-12-26T22:39:02.346Z,101457.00
2022-12-26T22:41:29.198Z,101465.91
2022-12-26T22:43:56.082Z,101465.19
2022-12-26T22:46:22.661Z,101469.25
2022-12-26T22:48:49.432Z,101471.28
2022-12-26T22:51:21.429Z,101466.09
2022-12-26T22:53:47.797Z,101473.47
2022-12-26T22:56:14.278Z,101473.31
2022-12-26T22:58:40.654Z,101483.31
2022-12-26T23:01:15.283Z,101497.84
2022-12-26T23:03:41.776Z,101493.22
2022-12-26T23:06:17.590Z,101492.81
2022-12-26T23:08:44.292Z,101498.19
2022-12-26T23:11:10.792Z,101508.59
2022-12-26T23:13:37.437Z,101500.13
2022-12-26T23:16:27.073Z,101511.84
2022-12-26T23:19:19.499Z,101514.50
2022-12-26T23:21:50.184Z,101521.22
2022-12-26T23:24:22.853Z,101502.72
2022-12-26T23:27:21.198Z,101510.69
2022-12-26T23:30:07.522Z,101506.56
2022-12-26T23:32:34.286Z,101509.31
2022-12-26T23:35:00.737Z,101501.78
2022-12-26T23:37:27.170Z,101508.81
2022-12-26T23:39:53.511Z,101510.56
2022-12-26T23:42:19.872Z,101511.75
2022-12-26T23:44:46.354Z,101513.22
2022-12-26T23:47:12.711Z,101516.06
2022-12-26T23:49:39.136Z,101506.31
2022-12-26T23:52:05.585Z,101525.69
2022-12-26T23:54:31.928Z,101516.91
2022-12-26T23:56:58.361Z,101514.69
2022-12-26T23:59:24.899Z,101511.63
